createdAt,value
2023-04-06T00:00:46.571Z,0.00
2023-04-06T00:01:46.382Z,0.00
2023-04-06T00:02:46.371Z,0.00
2023-04-06T00:03:46.407Z,0.00
2023-04-06T00:04:46.312Z,0.00
2023-04-06T00:05:46.303Z,0.00
2023-04-06T00:06:46.317Z,0.00
2023-04-06T00:07:46.289Z,0.00
2023-04-06T00:08:46.288Z,0.00
2023-04-06T00:09:46.263Z,0.00
2023-04-06T00:10:46.254Z,0.00
2023-04-06T00:11:46.229Z,0.00
2023-04-06T00:12:46.259Z,0.00
2023-04-06T00:13:46.230Z,0.00
2023-04-06T00:14:46.214Z,0.00
2023-04-06T00:15:46.182Z,0.00
2023-04-06T00:16:46.275Z,0.00
2023-04-06T00:17:46.219Z,0.00
2023-04-06T00:18:46.184Z,0.00
2023-04-06T00:19:46.148Z,0.00
2023-04-06T00:20:46.170Z,0.00
2023-04-06T00:21:46.146Z,0.00
2023-04-06T00:22:46.116Z,0.00
2023-04-06T00:23:46.125Z,0.00
2023-04-06T00:24:46.093Z,0.00
2023-04-06T00:25:46.092Z,0.00
2023-04-06T00:26:46.076Z,0.00
2023-04-06T00:27:46.045Z,0.00
2023-04-06T00:28:46.042Z,0.00
2023-04-06T00:29:46.051Z,0.00
2023-04-06T00:30:46.017Z,0.00
2023-04-06T00:31:46.060Z,0.00
2023-04-06T00:32:46.032Z,0.00
2023-04-06T00:33:46.013Z,0.00
2023-04-06T00:34:46.001Z,0.00
2023-04-06T00:35:46.053Z,0.00
2023-04-06T00:36:45.964Z,0.00
2023-04-06T00:37:45.943Z,0.00
2023-04-06T00:38:45.998Z,0.00
2023-04-06T00:39:45.921Z,0.00
2023-04-06T00:40:45.952Z,0.00
2023-04-06T00:41:45.899Z,0.00
2023-04-06T00:42:45.913Z,0.00
2023-04-06T00:43:45.873Z,0.00
2023-04-06T00:44:45.869Z,0.00
2023-04-06T00:45:45.934Z,0.00
2023-04-06T00:46:45.868Z,0.00
2023-04-06T00:47:45.898Z,0.00
2023-04-06T00:48:45.822Z,0.00
2023-04-06T00:49:45.803Z,0.00
2023-04-06T00:50:45.815Z,0.00
2023-04-06T00:51:45.788Z,0.00
2023-04-06T00:52:45.781Z,0.00
2023-04-06T00:53:45.763Z,0.00
2023-04-06T00:54:45.757Z,0.00
2023-04-06T00:55:45.772Z,0.00
2023-04-06T00:56:45.733Z,0.00
2023-04-06T00:57:45.714Z,0.00
2023-04-06T00:58:45.713Z,0.00
2023-04-06T00:59:45.706Z,0.00
2023-04-06T01:00:45.688Z,0.00
2023-04-06T01:01:45.793Z,0.00
2023-04-06T01:02:45.680Z,0.00
2023-04-06T01:03:45.650Z,0.00
2023-04-06T01:04:45.639Z,0.00
2023-04-06T01:05:45.725Z,0.00
2023-04-06T01:06:45.654Z,0.00
2023-04-06T01:07:45.752Z,0.00
2023-04-06T01:08:45.623Z,0.00
2023-04-06T01:09:45.583Z,0.00
2023-04-06T01:10:45.576Z,0.00
2023-04-06T01:11:45.605Z,0.00
2023-04-06T01:12:45.560Z,0.00
2023-04-06T01:13:45.543Z,0.00
2023-04-06T01:14:45.549Z,0.00
2023-04-06T01:15:45.604Z,0.00
2023-04-06T01:16:45.531Z,0.00
2023-04-06T01:17:45.619Z,0.00
2023-04-06T01:18:45.495Z,0.00
2023-04-06T01:19:45.472Z,0.00
2023-04-06T01:20:45.468Z,0.00
2023-04-06T01:21:45.469Z,0.00
2023-04-06T01:22:45.440Z,0.00
2023-04-06T01:23:45.429Z,0.00
2023-04-06T01:24:45.424Z,0.00
2023-04-06T01:25:45.402Z,0.00
2023-04-06T01:26:45.436Z,0.00
2023-04-06T01:27:45.381Z,0.00
2023-04-06T01:28:45.374Z,0.00
2023-04-06T01:29:45.357Z,0.00
2023-04-06T01:30:45.352Z,0.00
2023-04-06T01:31:45.400Z,0.00
2023-04-06T01:32:45.412Z,0.00
2023-04-06T01:33:45.318Z,0.00
2023-04-06T01:34:45.313Z,0.00
2023-04-06T01:35:45.343Z,0.00
2023-04-06T01:36:45.307Z,0.00
2023-04-06T01:37:45.285Z,0.00
2023-04-06T01:38:45.281Z,0.00
2023-04-06T01:39:45.247Z,0.00
2023-04-06T01:40:45.260Z,0.00
2023-04-06T01:41:45.223Z,0.00
2023-04-06T01:42:45.217Z,0.00
2023-04-06T01:43:45.215Z,0.00
2023-04-06T01:44:45.212Z,0.00
2023-04-06T01:45:45.169Z,0.00
2023-04-06T01:46:45.264Z,0.00
2023-04-06T01:47:45.167Z,0.00
2023-04-06T01:48:45.147Z,0.00
2023-04-06T01:49:45.156Z,0.00
2023-04-06T01:50:45.117Z,0.00
2023-04-06T01:51:45.107Z,0.00
2023-04-06T01:52:45.098Z,0.00
2023-04-06T01:53:45.087Z,0.00
2023-04-06T01:54:45.105Z,0.00
2023-04-06T01:55:45.073Z,0.00
2023-04-06T01:56:45.052Z,0.00
2023-04-06T01:57:45.037Z,0.00
2023-04-06T01:58:45.033Z,0.00
2023-04-06T01:59:45.028Z,0.00
2023-04-06T02:00:45.034Z,0.00
2023-04-06T02:01:45.013Z,0.00
2023-04-06T02:02:45.010Z,0.00
2023-04-06T02:03:44.972Z,0.00
2023-04-06T02:04:44.979Z,0.00
2023-04-06T02:05:44.954Z,0.00
2023-04-06T02:06:44.953Z,0.00
2023-04-06T02:07:44.930Z,0.00
2023-04-06T02:08:44.933Z,0.00
2023-04-06T02:09:44.935Z,0.00
2023-04-06T02:10:44.893Z,0.00
2023-04-06T02:11:44.885Z,0.00
2023-04-06T02:12:44.878Z,0.00
2023-04-06T02:13:44.877Z,0.00
2023-04-06T02:14:44.882Z,0.00
2023-04-06T02:15:44.841Z,0.00
2023-04-06T02:16:44.863Z,0.00
2023-04-06T02:17:44.860Z,0.00
2023-04-06T02:18:44.831Z,0.00
2023-04-06T02:19:44.821Z,0.00
2023-04-06T02:20:44.788Z,0.00
2023-04-06T02:21:44.770Z,0.00
2023-04-06T02:22:44.784Z,0.00
2023-04-06T02:23:44.761Z,0.00
2023-04-06T02:24:44.765Z,0.00
2023-04-06T02:25:44.781Z,0.00
2023-04-06T02:26:44.718Z,0.00
2023-04-06T02:27:44.706Z,0.00
2023-04-06T02:28:44.717Z,0.00
2023-04-06T02:29:44.704Z,0.00
2023-04-06T02:30:44.678Z,0.00
2023-04-06T02:31:44.720Z,0.00
2023-04-06T02:32:44.689Z,0.00
2023-04-06T02:33:44.640Z,0.00
2023-04-06T02:34:44.644Z,0.00
2023-04-06T02:35:44.722Z,0.00
2023-04-06T02:36:44.613Z,0.00
2023-04-06T02:37:44.609Z,0.00
2023-04-06T02:38:44.600Z,0.00
2023-04-06T02:39:44.595Z,0.00
2023-04-06T02:40:44.565Z,0.00
2023-04-06T02:41:44.554Z,0.00
2023-04-06T02:42:44.540Z,0.00
2023-04-06T02:43:44.533Z,0.00
2023-04-06T02:44:44.542Z,0.00
2023-04-06T02:45:44.524Z,0.00
2023-04-06T02:46:44.507Z,0.00
2023-04-06T02:47:44.581Z,0.00
2023-04-06T02:48:44.467Z,0.00
2023-04-06T02:49:45.487Z,0.00
2023-04-06T02:50:44.460Z,0.00
2023-04-06T02:51:44.444Z,0.00
2023-04-06T02:52:44.434Z,0.00
2023-04-06T02:53:44.416Z,0.00
2023-04-06T02:54:44.449Z,0.00
2023-04-06T02:55:44.415Z,0.00
2023-04-06T02:56:44.386Z,0.00
2023-04-06T02:57:44.378Z,0.00
2023-04-06T02:58:44.364Z,0.00
2023-04-06T02:59:44.437Z,0.00
2023-04-06T03:00:44.348Z,0.00
2023-04-06T03:01:44.405Z,0.00
2023-04-06T03:02:44.421Z,0.00
2023-04-06T03:03:44.445Z,0.00
2023-04-06T03:04:44.328Z,0.00
2023-04-06T03:05:44.288Z,0.00
2023-04-06T03:06:44.273Z,0.00
2023-04-06T03:07:44.262Z,0.00
2023-04-06T03:08:44.248Z,0.00
2023-04-06T03:09:44.260Z,0.00
2023-04-06T03:10:44.243Z,0.00
2023-04-06T03:11:44.214Z,0.00
2023-04-06T03:12:44.220Z,0.00
2023-04-06T03:13:44.194Z,0.00
2023-04-06T03:14:44.207Z,0.00
2023-04-06T03:15:44.199Z,0.00
2023-04-06T03:16:44.161Z,0.00
2023-04-06T03:17:44.197Z,0.00
2023-04-06T03:18:44.145Z,0.00
2023-04-06T03:19:44.146Z,0.00
2023-04-06T03:20:44.134Z,0.00
2023-04-06T03:21:44.118Z,0.00
2023-04-06T03:22:44.090Z,0.00
2023-04-06T03:23:44.086Z,0.00
2023-04-06T03:24:44.088Z,0.00
2023-04-06T03:25:44.053Z,0.00
2023-04-06T03:26:44.044Z,0.00
2023-04-06T03:27:44.039Z,0.00
2023-04-06T03:28:44.022Z,0.00
2023-04-06T03:29:44.039Z,0.00
2023-04-06T03:30:43.999Z,0.00
2023-04-06T03:31:44.116Z,0.00
2023-04-06T03:32:44.029Z,0.00
2023-04-06T03:33:43.977Z,0.00
2023-04-06T03:34:43.977Z,0.00
2023-04-06T03:35:43.975Z,0.00
2023-04-06T03:36:43.930Z,0.00
2023-04-06T03:37:43.920Z,0.00
2023-04-06T03:38:43.916Z,0.00
2023-04-06T03:39:43.924Z,0.00
2023-04-06T03:40:43.893Z,0.00
2023-04-06T03:41:43.880Z,0.00
2023-04-06T03:42:43.872Z,0.00
2023-04-06T03:43:43.877Z,0.00
2023-04-06T03:44:43.913Z,0.00
2023-04-06T03:45:43.835Z,0.00
2023-04-06T03:46:43.875Z,0.00
2023-04-06T03:47:43.824Z,0.00
2023-04-06T03:48:43.803Z,0.00
2023-04-06T03:49:43.808Z,0.00
2023-04-06T03:50:43.781Z,0.00
2023-04-06T03:51:43.773Z,0.00
2023-04-06T03:52:43.744Z,0.00
2023-04-06T03:53:43.740Z,0.00
2023-04-06T03:54:43.754Z,0.00
2023-04-06T03:55:43.715Z,0.00
2023-04-06T03:56:43.698Z,0.00
2023-04-06T03:57:43.693Z,0.00
2023-04-06T03:58:43.674Z,0.00
2023-04-06T03:59:43.734Z,0.00
2023-04-06T04:00:43.653Z,0.00
2023-04-06T04:01:43.696Z,0.00
2023-04-06T04:02:43.755Z,0.00
2023-04-06T04:03:43.743Z,0.00
2023-04-06T04:04:43.666Z,0.00
2023-04-06T04:05:43.607Z,0.00
2023-04-06T04:06:43.635Z,0.00
2023-04-06T04:07:43.583Z,0.00
2023-04-06T04:08:43.571Z,0.00
2023-04-06T04:09:43.581Z,0.00
2023-04-06T04:10:43.541Z,0.00
2023-04-06T04:11:43.538Z,0.00
2023-04-06T04:12:43.529Z,0.00
2023-04-06T04:13:43.513Z,0.00
2023-04-06T04:14:43.523Z,0.00
2023-04-06T04:15:43.516Z,0.00
2023-04-06T04:16:43.562Z,0.00
2023-04-06T04:17:44.331Z,0.00
2023-04-06T04:18:43.447Z,0.00
2023-04-06T04:19:43.481Z,0.00
2023-04-06T04:20:43.436Z,0.00
2023-04-06T04:21:43.424Z,0.00
2023-04-06T04:22:43.416Z,0.00
2023-04-06T04:23:43.415Z,4.00
2023-04-06T04:24:43.400Z,0.00
2023-04-06T04:25:43.387Z,4.00
2023-04-06T04:26:43.377Z,0.00
2023-04-06T04:27:43.385Z,4.00
2023-04-06T04:28:43.341Z,4.00
2023-04-06T04:29:43.361Z,4.00
2023-04-06T04:30:43.337Z,4.00
2023-04-06T04:31:43.364Z,4.00
2023-04-06T04:32:43.323Z,4.00
2023-04-06T04:33:43.300Z,8.00
2023-04-06T04:34:43.302Z,8.00
2023-04-06T04:35:43.308Z,12.00
2023-04-06T04:36:43.281Z,12.00
2023-04-06T04:37:43.277Z,12.00
2023-04-06T04:38:43.238Z,16.00
2023-04-06T04:39:43.257Z,20.00
2023-04-06T04:40:43.214Z,20.00
2023-04-06T04:41:43.221Z,28.00
2023-04-06T04:42:43.206Z,32.00
2023-04-06T04:43:43.198Z,36.00
2023-04-06T04:44:43.199Z,40.00
2023-04-06T04:45:43.185Z,48.00
2023-04-06T04:46:43.157Z,52.00
2023-04-06T04:47:43.194Z,60.00
2023-04-06T04:48:43.134Z,68.00
2023-04-06T04:49:43.162Z,76.00
2023-04-06T04:50:43.109Z,84.00
2023-04-06T04:51:43.119Z,96.00
2023-04-06T04:52:43.098Z,104.00
2023-04-06T04:53:43.077Z,116.00
2023-04-06T04:54:43.090Z,128.00
2023-04-06T04:55:43.059Z,144.00
2023-04-06T04:56:43.060Z,156.00
2023-04-06T04:57:43.076Z,168.00
2023-04-06T04:58:43.036Z,188.00
2023-04-06T04:59:43.036Z,204.00
2023-04-06T05:00:43.003Z,220.00
2023-04-06T05:01:54.156Z,236.00
2023-04-06T05:02:43.127Z,256.00
2023-04-06T05:03:43.127Z,272.00
2023-04-06T05:04:42.982Z,296.00
2023-04-06T05:05:42.946Z,312.00
2023-04-06T05:06:42.934Z,336.00
2023-04-06T05:07:42.933Z,356.00
2023-04-06T05:08:42.927Z,380.00
2023-04-06T05:09:42.926Z,404.00
2023-04-06T05:10:42.887Z,424.00
2023-04-06T05:11:42.891Z,448.00
2023-04-06T05:12:42.866Z,472.00
2023-04-06T05:13:42.866Z,496.00
2023-04-06T05:14:42.869Z,516.00
2023-04-06T05:15:42.863Z,540.00
2023-04-06T05:16:42.829Z,568.00
2023-04-06T05:17:42.890Z,588.00
2023-04-06T05:18:42.804Z,612.00
2023-04-06T05:19:42.808Z,636.00
2023-04-06T05:20:42.786Z,656.00
2023-04-06T05:21:42.779Z,680.00
2023-04-06T05:22:42.758Z,704.00
2023-04-06T05:23:42.753Z,728.00
2023-04-06T05:24:42.759Z,756.00
2023-04-06T05:25:42.721Z,784.00
2023-04-06T05:26:42.718Z,812.00
2023-04-06T05:27:42.714Z,844.00
2023-04-06T05:28:42.686Z,872.00
2023-04-06T05:29:42.701Z,900.00
2023-04-06T05:30:42.663Z,932.00
2023-04-06T05:31:42.793Z,960.00
2023-04-06T05:32:42.659Z,992.00
2023-04-06T05:33:42.639Z,1020.00
2023-04-06T05:34:42.699Z,1048.00
2023-04-06T05:35:42.655Z,1076.00
2023-04-06T05:36:42.618Z,1104.00
2023-04-06T05:37:42.593Z,1128.00
2023-04-06T05:38:42.614Z,1152.00
2023-04-06T05:39:42.592Z,1176.00
2023-04-06T05:40:42.569Z,1200.00
2023-04-06T05:41:42.540Z,1224.00
2023-04-06T05:42:42.523Z,1252.00
2023-04-06T05:43:42.524Z,1276.00
2023-04-06T05:44:42.545Z,1300.00
2023-04-06T05:45:42.514Z,1328.00
2023-04-06T05:46:42.537Z,1352.00
2023-04-06T05:47:42.516Z,1376.00
2023-04-06T05:48:42.493Z,1400.00
2023-04-06T05:49:42.505Z,1420.00
2023-04-06T05:50:42.455Z,1448.00
2023-04-06T05:51:42.434Z,1472.00
2023-04-06T05:52:42.410Z,1496.00
2023-04-06T05:53:42.408Z,1528.00
2023-04-06T05:54:42.410Z,1552.00
2023-04-06T05:55:42.401Z,1580.00
2023-04-06T05:56:42.375Z,1612.00
2023-04-06T05:57:42.373Z,1636.00
2023-04-06T05:58:42.351Z,1664.00
2023-04-06T05:59:42.480Z,1688.00
2023-04-06T06:00:42.319Z,1716.00
2023-04-06T06:01:42.318Z,1744.00
2023-04-06T06:02:42.314Z,1768.00
2023-04-06T06:03:42.311Z,1800.00
2023-04-06T06:04:42.314Z,1832.00
2023-04-06T06:05:42.266Z,1864.00
2023-04-06T06:06:42.262Z,1896.00
2023-04-06T06:07:42.243Z,1936.00
2023-04-06T06:08:42.227Z,1968.00
2023-04-06T06:09:42.240Z,2000.00
2023-04-06T06:10:42.209Z,2036.00
2023-04-06T06:11:42.221Z,2072.00
2023-04-06T06:12:42.191Z,2104.00
2023-04-06T06:13:42.198Z,2136.00
2023-04-06T06:14:42.198Z,2172.00
2023-04-06T06:15:42.169Z,2208.00
2023-04-06T06:16:42.186Z,2244.00
2023-04-06T06:17:42.178Z,2272.00
2023-04-06T06:18:42.133Z,2308.00
2023-04-06T06:19:42.131Z,2332.00
2023-04-06T06:20:42.092Z,2364.00
2023-04-06T06:21:42.092Z,2392.00
2023-04-06T06:22:42.080Z,2416.00
2023-04-06T06:23:42.099Z,2440.00
2023-04-06T06:24:42.077Z,2464.00
2023-04-06T06:25:42.060Z,2484.00
2023-04-06T06:26:42.049Z,2500.00
2023-04-06T06:27:42.053Z,2508.00
2023-04-06T06:28:42.049Z,2528.00
2023-04-06T06:29:42.019Z,2560.00
2023-04-06T06:30:42.005Z,2584.00
2023-04-06T06:31:42.034Z,2608.00
2023-04-06T06:32:42.009Z,2632.00
2023-04-06T06:33:41.964Z,2656.00
2023-04-06T06:34:41.964Z,2676.00
2023-04-06T06:35:41.959Z,2696.00
2023-04-06T06:36:41.927Z,2716.00
2023-04-06T06:37:41.914Z,2736.00
2023-04-06T06:38:41.936Z,2756.00
2023-04-06T06:39:41.902Z,2780.00
2023-04-06T06:40:41.879Z,2804.00
2023-04-06T06:41:41.891Z,2828.00
2023-04-06T06:42:41.867Z,2848.00
2023-04-06T06:43:41.846Z,2864.00
2023-04-06T06:44:41.858Z,2884.00
2023-04-06T06:45:41.894Z,2904.00
2023-04-06T06:46:41.839Z,2932.00
2023-04-06T06:47:41.842Z,2952.00
2023-04-06T06:48:41.796Z,2972.00
2023-04-06T06:49:41.795Z,2992.00
2023-04-06T06:50:41.793Z,3008.00
2023-04-06T06:51:41.753Z,3028.00
2023-04-06T06:52:41.752Z,3052.00
2023-04-06T06:53:41.747Z,3084.00
2023-04-06T06:54:41.753Z,3104.00
2023-04-06T06:55:41.757Z,3128.00
2023-04-06T06:56:41.724Z,3152.00
2023-04-06T06:57:41.686Z,3176.00
2023-04-06T06:58:41.774Z,3196.00
2023-04-06T06:59:41.711Z,3216.00
2023-04-06T07:00:41.678Z,3228.00
2023-04-06T07:01:41.686Z,3256.00
2023-04-06T07:02:41.692Z,3280.00
2023-04-06T07:03:41.620Z,3300.00
2023-04-06T07:04:41.646Z,3316.00
2023-04-06T07:05:41.641Z,3332.00
2023-04-06T07:06:41.592Z,3352.00
2023-04-06T07:07:41.583Z,3368.00
2023-04-06T07:08:41.596Z,3388.00
2023-04-06T07:09:41.642Z,3416.00
2023-04-06T07:10:41.598Z,3432.00
2023-04-06T07:11:41.525Z,3444.00
2023-04-06T07:12:41.520Z,3464.00
2023-04-06T07:13:41.511Z,3484.00
2023-04-06T07:14:41.522Z,3504.00
2023-04-06T07:15:41.512Z,3528.00
2023-04-06T07:16:41.556Z,3544.00
2023-04-06T07:17:41.491Z,3564.00
2023-04-06T07:18:41.450Z,3584.00
2023-04-06T07:19:41.452Z,3608.00
2023-04-06T07:20:41.453Z,3636.00
2023-04-06T07:21:41.436Z,3656.00
2023-04-06T07:22:41.443Z,3680.00
2023-04-06T07:23:41.398Z,3700.00
2023-04-06T07:24:41.432Z,3720.00
2023-04-06T07:25:41.399Z,3744.00
2023-04-06T07:26:41.379Z,3760.00
2023-04-06T07:27:41.346Z,3784.00
2023-04-06T07:28:41.360Z,3800.00
2023-04-06T07:29:41.346Z,3820.00
2023-04-06T07:30:41.320Z,3844.00
2023-04-06T07:31:41.326Z,3852.00
2023-04-06T07:32:41.356Z,3872.00
2023-04-06T07:33:41.278Z,3892.00
2023-04-06T07:34:41.297Z,3916.00
2023-04-06T07:35:41.376Z,3916.00
2023-04-06T07:36:41.246Z,3936.00
2023-04-06T07:37:41.241Z,3964.00
2023-04-06T07:38:41.220Z,3972.00
2023-04-06T07:39:41.243Z,3992.00
2023-04-06T07:40:41.215Z,4012.00
2023-04-06T07:41:41.197Z,4020.00
2023-04-06T07:42:41.179Z,4036.00
2023-04-06T07:43:41.173Z,4052.00
2023-04-06T07:44:41.168Z,4072.00
2023-04-06T07:45:41.221Z,4092.00
2023-04-06T07:46:41.140Z,4116.00
2023-04-06T07:47:41.160Z,4136.00
2023-04-06T07:48:41.114Z,4164.00
2023-04-06T07:49:41.134Z,4176.00
2023-04-06T07:50:41.084Z,4200.00
2023-04-06T07:51:41.077Z,4224.00
2023-04-06T07:52:41.067Z,4244.00
2023-04-06T07:53:41.067Z,4268.00
2023-04-06T07:54:41.068Z,4276.00
2023-04-06T07:55:41.049Z,4288.00
2023-04-06T07:56:41.014Z,4308.00
2023-04-06T07:57:41.012Z,4328.00
2023-04-06T07:58:40.994Z,4340.00
2023-04-06T07:59:41.054Z,4304.00
2023-04-06T08:00:40.992Z,4320.00
2023-04-06T08:01:40.970Z,4328.00
2023-04-06T08:02:41.023Z,4344.00
2023-04-06T08:03:41.096Z,4360.00
2023-04-06T08:04:41.320Z,4372.00
2023-04-06T08:05:40.921Z,4380.00
2023-04-06T08:06:40.911Z,4396.00
2023-04-06T08:07:40.920Z,4412.00
2023-04-06T08:08:40.892Z,4444.00
2023-04-06T08:09:40.887Z,4452.00
2023-04-06T08:10:40.862Z,4468.00
2023-04-06T08:11:40.880Z,4496.00
2023-04-06T08:12:40.840Z,4512.00
2023-04-06T08:13:40.829Z,4532.00
2023-04-06T08:14:40.831Z,4556.00
2023-04-06T08:15:40.842Z,4580.00
2023-04-06T08:16:40.789Z,4600.00
2023-04-06T08:17:40.820Z,4604.00
2023-04-06T08:18:40.765Z,4628.00
2023-04-06T08:19:40.768Z,4648.00
2023-04-06T08:20:40.778Z,4664.00
2023-04-06T08:21:40.735Z,4684.00
2023-04-06T08:22:40.733Z,4704.00
2023-04-06T08:23:40.709Z,4732.00
2023-04-06T08:24:40.695Z,4752.00
2023-04-06T08:25:40.725Z,4776.00
2023-04-06T08:26:40.698Z,4792.00
2023-04-06T08:27:40.680Z,4804.00
2023-04-06T08:28:40.665Z,4816.00
2023-04-06T08:29:40.642Z,4836.00
2023-04-06T08:30:40.633Z,4852.00
2023-04-06T08:31:40.722Z,4872.00
2023-04-06T08:32:40.638Z,4876.00
2023-04-06T08:33:40.602Z,4888.00
2023-04-06T08:34:40.589Z,4904.00
2023-04-06T08:35:40.634Z,4916.00
2023-04-06T08:36:40.564Z,4924.00
2023-04-06T08:37:40.588Z,4928.00
2023-04-06T08:38:40.549Z,4940.00
2023-04-06T08:39:40.535Z,4956.00
2023-04-06T08:40:40.520Z,4976.00
2023-04-06T08:41:40.515Z,4980.00
2023-04-06T08:42:40.527Z,4924.00
2023-04-06T08:43:40.494Z,4872.00
2023-04-06T08:44:40.472Z,4820.00
2023-04-06T08:45:40.464Z,4884.00
2023-04-06T08:46:40.488Z,4948.00
2023-04-06T08:47:40.477Z,4968.00
2023-04-06T08:48:40.455Z,5016.00
2023-04-06T08:49:40.443Z,5072.00
2023-04-06T08:50:40.404Z,5060.00
2023-04-06T08:51:40.403Z,5084.00
2023-04-06T08:52:40.388Z,5144.00
2023-04-06T08:53:40.398Z,5136.00
2023-04-06T08:54:40.372Z,5140.00
2023-04-06T08:55:40.350Z,5148.00
2023-04-06T08:56:40.332Z,5144.00
2023-04-06T08:57:40.342Z,5080.00
2023-04-06T08:58:40.346Z,5088.00
2023-04-06T08:59:40.392Z,5184.00
2023-04-06T09:00:40.293Z,5116.00
2023-04-06T09:01:40.306Z,5160.00
2023-04-06T09:02:40.315Z,5236.00
2023-04-06T09:03:40.344Z,5272.00
2023-04-06T09:04:40.292Z,5292.00
2023-04-06T09:05:40.242Z,5304.00
2023-04-06T09:06:40.218Z,5324.00
2023-04-06T09:07:40.215Z,5364.00
2023-04-06T09:08:40.198Z,5384.00
2023-04-06T09:09:40.643Z,5384.00
2023-04-06T09:10:40.175Z,5404.00
2023-04-06T09:11:40.165Z,5384.00
2023-04-06T09:12:40.153Z,5400.00
2023-04-06T09:13:40.139Z,5288.00
2023-04-06T09:14:40.137Z,5348.00
2023-04-06T09:15:40.139Z,5328.00
2023-04-06T09:16:40.403Z,5208.00
2023-04-06T09:17:40.114Z,5212.00
2023-04-06T09:18:40.077Z,5276.00
2023-04-06T09:19:40.083Z,5272.00
2023-04-06T09:20:40.086Z,5216.00
2023-04-06T09:21:40.060Z,5344.00
2023-04-06T09:22:40.039Z,5392.00
2023-04-06T09:23:40.099Z,5528.00
2023-04-06T09:24:40.015Z,5412.00
2023-04-06T09:25:40.010Z,5516.00
2023-04-06T09:26:40.019Z,5496.00
2023-04-06T09:27:40.001Z,5508.00
2023-04-06T09:28:39.971Z,5488.00
2023-04-06T09:29:39.962Z,5520.00
2023-04-06T09:30:39.946Z,5580.00
2023-04-06T09:31:40.071Z,5644.00
2023-04-06T09:32:39.984Z,5648.00
2023-04-06T09:33:39.923Z,5620.00
2023-04-06T09:34:39.916Z,5664.00
2023-04-06T09:35:39.901Z,5796.00
2023-04-06T09:36:39.897Z,5896.00
2023-04-06T09:37:39.892Z,5872.00
2023-04-06T09:38:39.864Z,5832.00
2023-04-06T09:39:39.851Z,5884.00
2023-04-06T09:40:45.597Z,5916.00
2023-04-06T09:41:39.844Z,5844.00
2023-04-06T09:42:39.847Z,5868.00
2023-04-06T09:43:39.824Z,5888.00
2023-04-06T09:44:39.792Z,5936.00
2023-04-06T09:45:39.786Z,5980.00
2023-04-06T09:46:51.193Z,5936.00
2023-04-06T09:47:39.833Z,5912.00
2023-04-06T09:48:39.818Z,5784.00
2023-04-06T09:49:39.738Z,5748.00
2023-04-06T09:50:39.719Z,5748.00
2023-04-06T09:51:39.954Z,5468.00
2023-04-06T09:52:39.705Z,5692.00
2023-04-06T09:53:39.724Z,5896.00
2023-04-06T09:54:39.676Z,5932.00
2023-04-06T09:55:39.668Z,5752.00
2023-04-06T09:56:39.658Z,5820.00
2023-04-06T09:57:39.645Z,6004.00
2023-04-06T09:58:39.719Z,5924.00
2023-04-06T09:59:39.659Z,5948.00
2023-04-06T10:00:39.656Z,5956.00
2023-04-06T10:01:39.604Z,6052.00
2023-04-06T10:02:39.643Z,6144.00
2023-04-06T10:03:39.622Z,6232.00
2023-04-06T10:04:39.581Z,6148.00
2023-04-06T10:05:39.553Z,6048.00
2023-04-06T10:06:39.539Z,5488.00
2023-04-06T10:07:49.449Z,5068.00
2023-04-06T10:08:39.519Z,5368.00
2023-04-06T10:09:39.522Z,5508.00
2023-04-06T10:10:39.512Z,4384.00
2023-04-06T10:11:39.501Z,6060.00
2023-04-06T10:12:39.468Z,6368.00
2023-04-06T10:13:39.461Z,6292.00
2023-04-06T10:14:39.460Z,6440.00
2023-04-06T10:15:39.445Z,6308.00
2023-04-06T10:16:39.467Z,6324.00
2023-04-06T10:17:39.452Z,6232.00
2023-04-06T10:18:39.403Z,6364.00
2023-04-06T10:19:39.404Z,6556.00
2023-04-06T10:20:39.370Z,6696.00
2023-04-06T10:21:39.363Z,6872.00
2023-04-06T10:22:39.347Z,7096.00
2023-04-06T10:23:39.341Z,7364.00
2023-04-06T10:24:39.324Z,7396.00
2023-04-06T10:25:39.338Z,7564.00
2023-04-06T10:26:39.325Z,7764.00
2023-04-06T10:27:39.305Z,7940.00
2023-04-06T10:28:39.284Z,8096.00
2023-04-06T10:29:39.291Z,8200.00
2023-04-06T10:30:39.264Z,8288.00
2023-04-06T10:31:39.308Z,8392.00
2023-04-06T10:32:39.243Z,8472.00
2023-04-06T10:33:39.236Z,8496.00
2023-04-06T10:34:39.232Z,8208.00
2023-04-06T10:35:39.239Z,5988.00
2023-04-06T10:36:39.236Z,6236.00
2023-04-06T10:37:39.196Z,6144.00
2023-04-06T10:38:41.346Z,6196.00
2023-04-06T10:39:39.166Z,6228.00
2023-04-06T10:40:39.163Z,6164.00
2023-04-06T10:41:39.146Z,6668.00
2023-04-06T10:42:39.161Z,7688.00
2023-04-06T10:43:39.157Z,7100.00
2023-04-06T10:44:39.110Z,7216.00
2023-04-06T10:45:39.139Z,6796.00
2023-04-06T10:46:39.085Z,6628.00
2023-04-06T10:47:39.081Z,7056.00
2023-04-06T10:48:39.135Z,7008.00
2023-04-06T10:49:39.067Z,7060.00
2023-04-06T10:50:39.049Z,6716.00
2023-04-06T10:51:39.039Z,6868.00
2023-04-06T10:52:39.020Z,8652.00
2023-04-06T10:53:39.044Z,6584.00
2023-04-06T10:54:39.009Z,6636.00
2023-04-06T10:55:38.995Z,6544.00
2023-04-06T10:56:38.977Z,6696.00
2023-04-06T10:57:38.971Z,7076.00
2023-04-06T10:58:39.121Z,6948.00
2023-04-06T10:59:39.053Z,6840.00
2023-04-06T11:00:49.642Z,6904.00
2023-04-06T11:01:38.945Z,6740.00
2023-04-06T11:02:38.963Z,6856.00
2023-04-06T11:03:38.917Z,6756.00
2023-04-06T11:04:38.969Z,6764.00
2023-04-06T11:05:38.877Z,6640.00
2023-04-06T11:06:38.857Z,6720.00
2023-04-06T11:07:38.862Z,6732.00
2023-04-06T11:08:39.145Z,6724.00
2023-04-06T11:09:38.858Z,6752.00
2023-04-06T11:10:38.807Z,6908.00
2023-04-06T11:11:38.805Z,7016.00
2023-04-06T11:12:38.798Z,7264.00
2023-04-06T11:13:38.780Z,7088.00
2023-04-06T11:14:38.767Z,6904.00
2023-04-06T11:15:39.535Z,7012.00
2023-04-06T11:16:38.750Z,7064.00
2023-04-06T11:17:38.791Z,7052.00
2023-04-06T11:18:38.921Z,6904.00
2023-04-06T11:19:38.708Z,6792.00
2023-04-06T11:20:38.745Z,6824.00
2023-04-06T11:21:38.690Z,6904.00
2023-04-06T11:22:38.677Z,6988.00
2023-04-06T11:23:38.663Z,7104.00
2023-04-06T11:24:38.649Z,7232.00
2023-04-06T11:25:38.816Z,7600.00
2023-04-06T11:26:38.646Z,7436.00
2023-04-06T11:27:38.628Z,7856.00
2023-04-06T11:28:38.753Z,7816.00
2023-04-06T11:29:38.596Z,8252.00
2023-04-06T11:30:38.590Z,7912.00
2023-04-06T11:31:38.603Z,8692.00
2023-04-06T11:32:38.611Z,8156.00
2023-04-06T11:33:38.567Z,8704.00
2023-04-06T11:34:38.579Z,8220.00
2023-04-06T11:35:38.564Z,7960.00
2023-04-06T11:36:38.518Z,7656.00
2023-04-06T11:37:38.541Z,7488.00
2023-04-06T11:38:38.675Z,7520.00
2023-04-06T11:39:38.490Z,7428.00
2023-04-06T11:40:38.466Z,7424.00
2023-04-06T11:41:38.462Z,7316.00
2023-04-06T11:42:38.455Z,7224.00
2023-04-06T11:43:38.484Z,7228.00
2023-04-06T11:44:38.433Z,7136.00
2023-04-06T11:45:38.425Z,7228.00
2023-04-06T11:46:38.449Z,7132.00
2023-04-06T11:47:38.424Z,6932.00
2023-04-06T11:48:38.619Z,6824.00
2023-04-06T11:49:38.385Z,6812.00
2023-04-06T11:50:38.366Z,6816.00
2023-04-06T11:51:38.357Z,6744.00
2023-04-06T11:52:38.345Z,6728.00
2023-04-06T11:53:38.343Z,6748.00
2023-04-06T11:54:38.350Z,6840.00
2023-04-06T11:55:38.316Z,6796.00
2023-04-06T11:56:38.287Z,6808.00
2023-04-06T11:57:38.279Z,6828.00
2023-04-06T11:58:38.532Z,6816.00
2023-04-06T11:59:38.268Z,6960.00
2023-04-06T12:00:38.262Z,6992.00
2023-04-06T12:01:39.293Z,7032.00
2023-04-06T12:02:38.322Z,7120.00
2023-04-06T12:03:38.331Z,7212.00
2023-04-06T12:04:38.299Z,7384.00
2023-04-06T12:05:38.221Z,7440.00
2023-04-06T12:06:38.177Z,7296.00
2023-04-06T12:07:38.158Z,7600.00
2023-04-06T12:08:38.265Z,7828.00
2023-04-06T12:09:38.140Z,7616.00
2023-04-06T12:10:38.144Z,7576.00
2023-04-06T12:11:38.145Z,7372.00
2023-04-06T12:12:38.109Z,7500.00
2023-04-06T12:13:38.090Z,7616.00
2023-04-06T12:14:38.111Z,7508.00
2023-04-06T12:15:38.089Z,7768.00
2023-04-06T12:16:38.179Z,7568.00
2023-04-06T12:17:38.098Z,7880.00
2023-04-06T12:18:38.176Z,8036.00
2023-04-06T12:19:38.030Z,8044.00
2023-04-06T12:20:38.036Z,8064.00
2023-04-06T12:21:38.000Z,8180.00
2023-04-06T12:22:38.002Z,7724.00
2023-04-06T12:23:38.024Z,7720.00
2023-04-06T12:24:37.981Z,7464.00
2023-04-06T12:25:37.953Z,7384.00
2023-04-06T12:26:37.953Z,7336.00
2023-04-06T12:27:37.925Z,7312.00
2023-04-06T12:28:38.002Z,7480.00
2023-04-06T12:29:37.930Z,7440.00
2023-04-06T12:30:37.908Z,7364.00
2023-04-06T12:31:37.929Z,7360.00
2023-04-06T12:32:37.989Z,7424.00
2023-04-06T12:33:37.860Z,7440.00